sensor_id;sensor_type;location;lat;lon;timestamp;P1;durP1;ratioP1;P2;durP2;ratioP2
55497;SDS011;41357;52.806;18.268;2024-03-22T00:00:34;17.27;;;8.65;;
55497;SDS011;41357;52.806;18.268;2024-03-22T00:03:00;18.02;;;9.18;;
55497;SDS011;41357;52.806;18.268;2024-03-22T00:05:26;15.57;;;8.63;;
55497;SDS011;41357;52.806;18.268;2024-03-22T00:07:52;20.63;;;9.75;;
55497;SDS011;41357;52.806;18.268;2024-03-22T00:10:18;14.27;;;7.50;;
55497;SDS011;41357;52.806;18.268;2024-03-22T00:12:45;17.00;;;7.55;;
55497;SDS011;41357;52.806;18.268;2024-03-22T00:15:11;21.92;;;10.40;;
55497;SDS011;41357;52.806;18.268;2024-03-22T00:17:37;17.65;;;9.60;;
55497;SDS011;41357;52.806;18.268;2024-03-22T00:20:03;21.40;;;10.32;;
55497;SDS011;41357;52.806;18.268;2024-03-22T00:22:29;19.60;;;9.80;;
55497;SDS011;41357;52.806;18.268;2024-03-22T00:24:55;20.40;;;10.32;;
55497;SDS011;41357;52.806;18.268;2024-03-22T00:27:22;21.48;;;11.68;;
55497;SDS011;41357;52.806;18.268;2024-03-22T00:29:48;16.42;;;9.27;;
55497;SDS011;41357;52.806;18.268;2024-03-22T00:32:14;18.17;;;9.27;;
55497;SDS011;41357;52.806;18.268;2024-03-22T00:34:41;13.15;;;8.27;;
55497;SDS011;41357;52.806;18.268;2024-03-22T00:37:07;20.08;;;10.95;;
55497;SDS011;41357;52.806;18.268;2024-03-22T00:39:33;18.95;;;9.75;;
55497;SDS011;41357;52.806;18.268;2024-03-22T00:41:59;14.57;;;9.45;;
55497;SDS011;41357;52.806;18.268;2024-03-22T00:44:25;20.40;;;9.27;;
55497;SDS011;41357;52.806;18.268;2024-03-22T00:46:51;14.55;;;7.85;;
55497;SDS011;41357;52.806;18.268;2024-03-22T00:49:17;15.80;;;8.57;;
55497;SDS011;41357;52.806;18.268;2024-03-22T00:51:43;16.20;;;8.45;;
55497;SDS011;41357;52.806;18.268;2024-03-22T00:54:10;19.02;;;8.05;;
55497;SDS011;41357;52.806;18.268;2024-03-22T00:56:37;25.75;;;11.82;;
55497;SDS011;41357;52.806;18.268;2024-03-22T00:59:03;24.58;;;11.43;;
55497;SDS011;41357;52.806;18.268;2024-03-22T01:01:29;25.35;;;12.88;;
55497;SDS011;41357;52.806;18.268;2024-03-22T01:03:55;18.67;;;8.82;;
55497;SDS011;41357;52.806;18.268;2024-03-22T01:06:21;19.65;;;10.90;;
55497;SDS011;41357;52.806;18.268;2024-03-22T01:08:50;21.02;;;10.73;;
55497;SDS011;41357;52.806;18.268;2024-03-22T01:11:19;17.83;;;9.95;;
55497;SDS011;41357;52.806;18.268;2024-03-22T01:13:45;18.92;;;10.02;;
55497;SDS011;41357;52.806;18.268;2024-03-22T01:16:11;21.73;;;10.05;;
55497;SDS011;41357;52.806;18.268;2024-03-22T01:18:38;20.05;;;9.32;;
55497;SDS011;41357;52.806;18.268;2024-03-22T01:21:04;15.43;;;8.60;;
55497;SDS011;41357;52.806;18.268;2024-03-22T01:23:30;16.52;;;7.85;;
55497;SDS011;41357;52.806;18.268;2024-03-22T01:25:56;14.50;;;8.52;;
55497;SDS011;41357;52.806;18.268;2024-03-22T01:28:23;19.35;;;9.27;;
55497;SDS011;41357;52.806;18.268;2024-03-22T01:30:49;18.83;;;9.32;;
55497;SDS011;41357;52.806;18.268;2024-03-22T01:33:15;24.27;;;11.10;;
55497;SDS011;41357;52.806;18.268;2024-03-22T01:35:41;25.48;;;11.30;;
55497;SDS011;41357;52.806;18.268;2024-03-22T01:38:07;19.17;;;9.90;;
55497;SDS011;41357;52.806;18.268;2024-03-22T01:40:33;20.95;;;9.65;;
55497;SDS011;41357;52.806;18.268;2024-03-22T01:42:59;20.98;;;9.85;;
55497;SDS011;41357;52.806;18.268;2024-03-22T01:45:27;24.58;;;11.48;;
55497;SDS011;41357;52.806;18.268;2024-03-22T01:50:24;18.08;;;9.38;;
55497;SDS011;41357;52.806;18.268;2024-03-22T01:52:51;18.23;;;9.55;;
55497;SDS011;41357;52.806;18.268;2024-03-22T01:55:17;17.17;;;8.68;;
55497;SDS011;41357;52.806;18.268;2024-03-22T01:57:43;16.80;;;8.93;;
55497;SDS011;41357;52.806;18.268;2024-03-22T02:00:10;14.77;;;6.82;;
55497;SDS011;41357;52.806;18.268;2024-03-22T02:02:36;25.63;;;12.13;;
55497;SDS011;41357;52.806;18.268;2024-03-22T02:05:14;20.95;;;8.90;;
55497;SDS011;41357;52.806;18.268;2024-03-22T02:07:44;26.08;;;12.57;;
55497;SDS011;41357;52.806;18.268;2024-03-22T02:10:10;23.13;;;11.43;;
55497;SDS011;41357;52.806;18.268;2024-03-22T02:12:40;16.10;;;8.52;;
55497;SDS011;41357;52.806;18.268;2024-03-22T02:15:07;22.88;;;11.93;;
55497;SDS011;41357;52.806;18.268;2024-03-22T02:17:34;27.15;;;12.27;;
55497;SDS011;41357;52.806;18.268;2024-03-22T02:20:00;28.58;;;13.55;;
55497;SDS011;41357;52.806;18.268;2024-03-22T02:22:26;30.25;;;13.60;;
55497;SDS011;41357;52.806;18.268;2024-03-22T02:24:53;28.85;;;12.75;;
55497;SDS011;41357;52.806;18.268;2024-03-22T02:27:19;24.45;;;11.68;;
55497;SDS011;41357;52.806;18.268;2024-03-22T02:29:45;24.17;;;11.55;;
55497;SDS011;41357;52.806;18.268;2024-03-22T02:32:11;27.27;;;12.27;;
55497;SDS011;41357;52.806;18.268;2024-03-22T02:34:38;33.20;;;12.68;;
55497;SDS011;41357;52.806;18.268;2024-03-22T02:37:04;27.15;;;11.65;;
55497;SDS011;41357;52.806;18.268;2024-03-22T02:39:30;23.95;;;12.60;;
55497;SDS011;41357;52.806;18.268;2024-03-22T02:41:56;25.67;;;11.18;;
55497;SDS011;41357;52.806;18.268;2024-03-22T02:44:22;26.85;;;11.75;;
55497;SDS011;41357;52.806;18.268;2024-03-22T02:46:48;30.23;;;12.80;;
55497;SDS011;41357;52.806;18.268;2024-03-22T02:49:15;30.83;;;12.10;;
55497;SDS011;41357;52.806;18.268;2024-03-22T02:51:41;23.73;;;12.13;;
55497;SDS011;41357;52.806;18.268;2024-03-22T02:54:07;26.90;;;11.93;;
55497;SDS011;41357;52.806;18.268;2024-03-22T02:56:33;28.30;;;12.27;;
55497;SDS011;41357;52.806;18.268;2024-03-22T02:58:59;33.40;;;12.60;;
55497;SDS011;41357;52.806;18.268;2024-03-22T03:01:25;28.58;;;13.10;;
55497;SDS011;41357;52.806;18.268;2024-03-22T03:03:51;28.38;;;12.23;;
55497;SDS011;41357;52.806;18.268;2024-03-22T03:06:17;29.50;;;13.65;;
55497;SDS011;41357;52.806;18.268;2024-03-22T03:08:45;26.67;;;11.98;;
55497;SDS011;41357;52.806;18.268;2024-03-22T03:11:11;28.65;;;13.40;;
55497;SDS011;41357;52.806;18.268;2024-03-22T03:13:37;30.55;;;12.60;;
55497;SDS011;41357;52.806;18.268;2024-03-22T03:16:03;34.65;;;15.23;;
55497;SDS011;41357;52.806;18.268;2024-03-22T03:18:30;32.58;;;14.63;;
55497;SDS011;41357;52.806;18.268;2024-03-22T03:20:56;36.63;;;16.20;;
55497;SDS011;41357;52.806;18.268;2024-03-22T03:23:22;41.88;;;16.70;;
55497;SDS011;41357;52.806;18.268;2024-03-22T03:25:48;33.30;;;14.45;;
55497;SDS011;41357;52.806;18.268;2024-03-22T03:28:14;41.45;;;16.27;;
55497;SDS011;41357;52.806;18.268;2024-03-22T03:30:41;38.92;;;16.33;;
55497;SDS011;41357;52.806;18.268;2024-03-22T03:33:07;33.80;;;14.75;;
55497;SDS011;41357;52.806;18.268;2024-03-22T03:35:33;45.00;;;17.58;;
55497;SDS011;41357;52.806;18.268;2024-03-22T03:37:59;39.28;;;17.13;;
55497;SDS011;41357;52.806;18.268;2024-03-22T03:40:25;47.08;;;17.75;;
55497;SDS011;41357;52.806;18.268;2024-03-22T03:42:52;35.33;;;14.70;;
55497;SDS011;41357;52.806;18.268;2024-03-22T03:45:19;47.17;;;18.70;;
55497;SDS011;41357;52.806;18.268;2024-03-22T03:47:45;27.25;;;13.05;;
55497;SDS011;41357;52.806;18.268;2024-03-22T03:50:11;38.65;;;17.40;;
55497;SDS011;41357;52.806;18.268;2024-03-22T03:52:37;48.53;;;18.02;;
55497;SDS011;41357;52.806;18.268;2024-03-22T03:55:04;46.10;;;17.13;;
55497;SDS011;41357;52.806;18.268;2024-03-22T03:57:30;36.00;;;15.35;;
55497;SDS011;41357;52.806;18.268;2024-03-22T03:59:56;42.88;;;16.38;;
55497;SDS011;41357;52.806;18.268;2024-03-22T04:02:22;38.17;;;14.50;;
55497;SDS011;41357;52.806;18.268;2024-03-22T04:04:51;39.25;;;14.43;;
55497;SDS011;41357;52.806;18.268;2024-03-22T04:07:17;52.70;;;20.55;;
55497;SDS011;41357;52.806;18.268;2024-03-22T04:09:43;43.88;;;16.55;;
55497;SDS011;41357;52.806;18.268;2024-03-22T04:12:10;43.20;;;15.07;;
55497;SDS011;41357;52.806;18.268;2024-03-22T04:14:36;47.25;;;20.05;;
55497;SDS011;41357;52.806;18.268;2024-03-22T04:17:02;54.55;;;21.77;;
55497;SDS011;41357;52.806;18.268;2024-03-22T04:19:28;31.90;;;15.07;;
55497;SDS011;41357;52.806;18.268;2024-03-22T04:21:54;42.17;;;17.77;;
55497;SDS011;41357;52.806;18.268;2024-03-22T04:24:20;39.88;;;15.20;;
55497;SDS011;41357;52.806;18.268;2024-03-22T04:26:46;45.15;;;17.10;;
55497;SDS011;41357;52.806;18.268;2024-03-22T04:29:12;41.78;;;19.17;;
55497;SDS011;41357;52.806;18.268;2024-03-22T04:31:39;29.83;;;14.27;;
55497;SDS011;41357;52.806;18.268;2024-03-22T04:34:05;35.25;;;13.85;;
55497;SDS011;41357;52.806;18.268;2024-03-22T04:36:32;47.45;;;15.90;;
55497;SDS011;41357;52.806;18.268;2024-03-22T04:38:58;41.03;;;15.02;;
55497;SDS011;41357;52.806;18.268;2024-03-22T04:41:24;32.83;;;12.77;;
55497;SDS011;41357;52.806;18.268;2024-03-22T04:43:50;37.28;;;14.52;;
55497;SDS011;41357;52.806;18.268;2024-03-22T04:46:17;30.02;;;12.55;;
55497;SDS011;41357;52.806;18.268;2024-03-22T04:48:43;28.05;;;12.85;;
55497;SDS011;41357;52.806;18.268;2024-03-22T04:51:09;31.73;;;12.43;;
55497;SDS011;41357;52.806;18.268;2024-03-22T04:53:35;34.05;;;12.43;;
55497;SDS011;41357;52.806;18.268;2024-03-22T04:56:02;35.75;;;12.40;;
55497;SDS011;41357;52.806;18.268;2024-03-22T04:58:28;23.23;;;9.27;;
55497;SDS011;41357;52.806;18.268;2024-03-22T05:00:57;20.35;;;8.82;;
55497;SDS011;41357;52.806;18.268;2024-03-22T05:03:24;15.45;;;6.13;;
55497;SDS011;41357;52.806;18.268;2024-03-22T05:05:50;12.27;;;5.43;;
55497;SDS011;41357;52.806;18.268;2024-03-22T05:08:16;28.80;;;12.95;;
55497;SDS011;41357;52.806;18.268;2024-03-22T05:10:42;26.00;;;11.57;;
55497;SDS011;41357;52.806;18.268;2024-03-22T05:13:08;25.48;;;11.52;;
55497;SDS011;41357;52.806;18.268;2024-03-22T05:15:34;29.83;;;11.27;;
55497;SDS011;41357;52.806;18.268;2024-03-22T05:18:01;27.23;;;10.38;;
55497;SDS011;41357;52.806;18.268;2024-03-22T05:20:27;25.40;;;11.07;;
55497;SDS011;41357;52.806;18.268;2024-03-22T05:22:53;23.00;;;11.10;;
55497;SDS011;41357;52.806;18.268;2024-03-22T05:25:19;25.17;;;10.68;;
55497;SDS011;41357;52.806;18.268;2024-03-22T05:27:46;35.78;;;13.45;;
55497;SDS011;41357;52.806;18.268;2024-03-22T05:30:12;28.02;;;11.95;;
55497;SDS011;41357;52.806;18.268;2024-03-22T05:32:38;28.65;;;11.50;;
55497;SDS011;41357;52.806;18.268;2024-03-22T05:35:06;36.15;;;13.88;;
55497;SDS011;41357;52.806;18.268;2024-03-22T05:37:32;30.20;;;12.20;;
55497;SDS011;41357;52.806;18.268;2024-03-22T05:40:02;30.55;;;12.27;;
55497;SDS011;41357;52.806;18.268;2024-03-22T05:42:31;27.27;;;12.02;;
55497;SDS011;41357;52.806;18.268;2024-03-22T05:44:57;33.13;;;12.88;;
55497;SDS011;41357;52.806;18.268;2024-03-22T05:47:23;35.47;;;13.43;;
55497;SDS011;41357;52.806;18.268;2024-03-22T05:49:50;27.65;;;11.15;;
55497;SDS011;41357;52.806;18.268;2024-03-22T05:52:17;36.55;;;12.80;;
55497;SDS011;41357;52.806;18.268;2024-03-22T05:54:43;31.45;;;13.35;;
55497;SDS011;41357;52.806;18.268;2024-03-22T05:57:09;35.88;;;12.85;;
55497;SDS011;41357;52.806;18.268;2024-03-22T05:59:35;34.42;;;12.63;;
55497;SDS011;41357;52.806;18.268;2024-03-22T06:02:01;27.08;;;11.30;;
55497;SDS011;41357;52.806;18.268;2024-03-22T06:04:28;32.70;;;12.77;;
55497;SDS011;41357;52.806;18.268;2024-03-22T06:06:54;25.80;;;10.35;;
55497;SDS011;41357;52.806;18.268;2024-03-22T06:09:20;32.67;;;13.35;;
55497;SDS011;41357;52.806;18.268;2024-03-22T06:11:59;32.22;;;12.18;;
55497;SDS011;41357;52.806;18.268;2024-03-22T06:14:25;29.67;;;11.32;;
55497;SDS011;41357;52.806;18.268;2024-03-22T06:16:51;36.53;;;14.30;;
55497;SDS011;41357;52.806;18.268;2024-03-22T06:19:17;28.30;;;12.57;;
55497;SDS011;41357;52.806;18.268;2024-03-22T06:21:43;30.83;;;12.23;;
55497;SDS011;41357;52.806;18.268;2024-03-22T06:24:09;31.60;;;12.80;;
55497;SDS011;41357;52.806;18.268;2024-03-22T06:26:36;31.58;;;12.57;;
55497;SDS011;41357;52.806;18.268;2024-03-22T06:29:02;27.23;;;11.77;;
55497;SDS011;41357;52.806;18.268;2024-03-22T06:31:28;26.95;;;10.05;;
55497;SDS011;41357;52.806;18.268;2024-03-22T06:33:54;33.47;;;12.43;;
55497;SDS011;41357;52.806;18.268;2024-03-22T06:36:27;26.13;;;10.60;;
55497;SDS011;41357;52.806;18.268;2024-03-22T06:38:53;25.33;;;10.48;;
55497;SDS011;41357;52.806;18.268;2024-03-22T06:41:19;30.70;;;12.07;;
55497;SDS011;41357;52.806;18.268;2024-03-22T06:43:45;26.15;;;11.52;;
55497;SDS011;41357;52.806;18.268;2024-03-22T06:46:12;32.42;;;12.75;;
55497;SDS011;41357;52.806;18.268;2024-03-22T06:48:38;30.90;;;12.25;;
55497;SDS011;41357;52.806;18.268;2024-03-22T06:51:04;29.83;;;11.90;;
55497;SDS011;41357;52.806;18.268;2024-03-22T06:53:30;28.98;;;10.63;;
55497;SDS011;41357;52.806;18.268;2024-03-22T06:55:56;22.52;;;10.68;;
55497;SDS011;41357;52.806;18.268;2024-03-22T06:58:22;27.60;;;9.18;;
55497;SDS011;41357;52.806;18.268;2024-03-22T07:00:48;43.95;;;14.63;;
55497;SDS011;41357;52.806;18.268;2024-03-22T07:03:15;34.15;;;13.65;;
55497;SDS011;41357;52.806;18.268;2024-03-22T07:05:42;31.73;;;11.18;;
55497;SDS011;41357;52.806;18.268;2024-03-22T07:08:09;32.28;;;12.90;;
55497;SDS011;41357;52.806;18.268;2024-03-22T07:10:38;36.45;;;13.45;;
55497;SDS011;41357;52.806;18.268;2024-03-22T07:13:04;39.85;;;14.18;;
55497;SDS011;41357;52.806;18.268;2024-03-22T07:15:30;31.65;;;13.32;;
55497;SDS011;41357;52.806;18.268;2024-03-22T07:17:57;31.52;;;11.52;;
55497;SDS011;41357;52.806;18.268;2024-03-22T07:20:24;26.70;;;11.30;;
55497;SDS011;41357;52.806;18.268;2024-03-22T07:22:50;27.05;;;9.63;;
55497;SDS011;41357;52.806;18.268;2024-03-22T07:25:17;27.63;;;10.70;;
55497;SDS011;41357;52.806;18.268;2024-03-22T07:27:43;29.80;;;11.25;;
55497;SDS011;41357;52.806;18.268;2024-03-22T07:30:09;26.17;;;11.30;;
55497;SDS011;41357;52.806;18.268;2024-03-22T07:32:35;25.30;;;10.07;;
55497;SDS011;41357;52.806;18.268;2024-03-22T07:35:02;27.48;;;12.15;;
55497;SDS011;41357;52.806;18.268;2024-03-22T07:37:28;37.80;;;12.48;;
55497;SDS011;41357;52.806;18.268;2024-03-22T07:39:55;34.97;;;11.52;;
55497;SDS011;41357;52.806;18.268;2024-03-22T07:42:21;31.65;;;12.90;;
55497;SDS011;41357;52.806;18.268;2024-03-22T07:44:47;34.97;;;11.93;;
55497;SDS011;41357;52.806;18.268;2024-03-22T07:47:13;30.05;;;11.20;;
55497;SDS011;41357;52.806;18.268;2024-03-22T07:49:39;26.73;;;10.43;;
55497;SDS011;41357;52.806;18.268;2024-03-22T07:52:06;28.33;;;10.00;;
55497;SDS011;41357;52.806;18.268;2024-03-22T07:54:32;27.63;;;11.00;;
55497;SDS011;41357;52.806;18.268;2024-03-22T07:56:58;25.50;;;10.50;;
55497;SDS011;41357;52.806;18.268;2024-03-22T07:59:24;33.03;;;12.55;;
55497;SDS011;41357;52.806;18.268;2024-03-22T08:01:50;24.33;;;10.52;;
55497;SDS011;41357;52.806;18.268;2024-03-22T08:04:16;30.33;;;11.80;;
55497;SDS011;41357;52.806;18.268;2024-03-22T08:06:43;29.10;;;10.55;;
55497;SDS011;41357;52.806;18.268;2024-03-22T08:09:09;25.23;;;10.10;;
55497;SDS011;41357;52.806;18.268;2024-03-22T08:11:35;26.27;;;10.60;;
55497;SDS011;41357;52.806;18.268;2024-03-22T08:14:01;25.08;;;10.73;;
55497;SDS011;41357;52.806;18.268;2024-03-22T08:16:31;28.02;;;10.68;;
55497;SDS011;41357;52.806;18.268;2024-03-22T08:18:57;32.42;;;12.65;;
55497;SDS011;41357;52.806;18.268;2024-03-22T08:21:24;36.35;;;12.02;;
55497;SDS011;41357;52.806;18.268;2024-03-22T08:23:50;37.53;;;14.15;;
55497;SDS011;41357;52.806;18.268;2024-03-22T08:26:16;43.97;;;14.95;;
55497;SDS011;41357;52.806;18.268;2024-03-22T08:28:43;41.10;;;14.63;;
55497;SDS011;41357;52.806;18.268;2024-03-22T08:31:10;40.20;;;13.63;;
55497;SDS011;41357;52.806;18.268;2024-03-22T08:33:36;39.03;;;14.57;;
55497;SDS011;41357;52.806;18.268;2024-03-22T08:36:02;42.40;;;14.23;;
55497;SDS011;41357;52.806;18.268;2024-03-22T08:38:28;30.63;;;11.70;;
55497;SDS011;41357;52.806;18.268;2024-03-22T08:40:54;57.15;;;18.25;;
55497;SDS011;41357;52.806;18.268;2024-03-22T08:43:21;68.45;;;20.85;;
55497;SDS011;41357;52.806;18.268;2024-03-22T08:45:50;54.40;;;19.75;;
55497;SDS011;41357;52.806;18.268;2024-03-22T08:48:16;33.38;;;12.50;;
55497;SDS011;41357;52.806;18.268;2024-03-22T08:50:43;32.33;;;11.57;;
55497;SDS011;41357;52.806;18.268;2024-03-22T08:53:09;27.33;;;11.30;;
55497;SDS011;41357;52.806;18.268;2024-03-22T08:55:35;26.45;;;9.27;;
55497;SDS011;41357;52.806;18.268;2024-03-22T08:58:02;34.67;;;11.85;;
55497;SDS011;41357;52.806;18.268;2024-03-22T09:00:28;29.50;;;11.10;;
55497;SDS011;41357;52.806;18.268;2024-03-22T09:02:55;33.97;;;13.23;;
55497;SDS011;41357;52.806;18.268;2024-03-22T09:05:21;32.10;;;11.48;;
55497;SDS011;41357;52.806;18.268;2024-03-22T09:07:47;29.25;;;10.90;;
55497;SDS011;41357;52.806;18.268;2024-03-22T09:10:13;32.05;;;12.18;;
55497;SDS011;41357;52.806;18.268;2024-03-22T09:12:40;23.05;;;8.90;;
55497;SDS011;41357;52.806;18.268;2024-03-22T09:15:07;21.88;;;9.15;;
55497;SDS011;41357;52.806;18.268;2024-03-22T09:17:33;21.75;;;9.02;;
55497;SDS011;41357;52.806;18.268;2024-03-22T09:19:59;25.27;;;9.30;;
55497;SDS011;41357;52.806;18.268;2024-03-22T09:22:26;33.33;;;10.05;;
55497;SDS011;41357;52.806;18.268;2024-03-22T09:24:52;21.02;;;9.50;;
55497;SDS011;41357;52.806;18.268;2024-03-22T09:27:18;21.92;;;9.90;;
55497;SDS011;41357;52.806;18.268;2024-03-22T09:29:44;23.23;;;8.98;;
55497;SDS011;41357;52.806;18.268;2024-03-22T09:32:10;21.25;;;7.30;;
55497;SDS011;41357;52.806;18.268;2024-03-22T09:34:36;19.85;;;8.13;;
55497;SDS011;41357;52.806;18.268;2024-03-22T09:37:03;18.52;;;8.27;;
55497;SDS011;41357;52.806;18.268;2024-03-22T09:39:29;18.67;;;8.77;;
55497;SDS011;41357;52.806;18.268;2024-03-22T09:41:57;20.30;;;7.90;;
55497;SDS011;41357;52.806;18.268;2024-03-22T09:44:23;17.42;;;8.20;;
55497;SDS011;41357;52.806;18.268;2024-03-22T09:46:52;18.55;;;8.55;;
55497;SDS011;41357;52.806;18.268;2024-03-22T09:49:18;18.48;;;8.82;;
55497;SDS011;41357;52.806;18.268;2024-03-22T09:51:45;16.70;;;8.02;;
55497;SDS011;41357;52.806;18.268;2024-03-22T09:54:11;14.85;;;6.93;;
55497;SDS011;41357;52.806;18.268;2024-03-22T09:56:38;19.60;;;9.20;;
55497;SDS011;41357;52.806;18.268;2024-03-22T09:59:05;19.70;;;8.40;;
55497;SDS011;41357;52.806;18.268;2024-03-22T10:01:37;20.00;;;8.73;;
55497;SDS011;41357;52.806;18.268;2024-03-22T10:04:06;21.58;;;7.95;;
55497;SDS011;41357;52.806;18.268;2024-03-22T10:06:34;21.25;;;9.23;;
55497;SDS011;41357;52.806;18.268;2024-03-22T10:09:01;18.38;;;8.38;;
55497;SDS011;41357;52.806;18.268;2024-03-22T10:11:28;24.33;;;9.00;;
55497;SDS011;41357;52.806;18.268;2024-03-22T10:13:54;22.70;;;9.32;;
55497;SDS011;41357;52.806;18.268;2024-03-22T10:16:21;21.38;;;9.27;;
55497;SDS011;41357;52.806;18.268;2024-03-22T10:18:47;18.38;;;9.10;;
55497;SDS011;41357;52.806;18.268;2024-03-22T10:21:16;23.13;;;10.27;;
55497;SDS011;41357;52.806;18.268;2024-03-22T10:23:46;27.27;;;10.43;;
55497;SDS011;41357;52.806;18.268;2024-03-22T10:26:13;20.48;;;9.07;;
55497;SDS011;41357;52.806;18.268;2024-03-22T10:28:46;24.98;;;11.13;;
55497;SDS011;41357;52.806;18.268;2024-03-22T10:31:12;19.65;;;9.90;;
55497;SDS011;41357;52.806;18.268;2024-03-22T10:33:40;19.95;;;7.97;;
55497;SDS011;41357;52.806;18.268;2024-03-22T10:36:07;18.67;;;9.15;;
55497;SDS011;41357;52.806;18.268;2024-03-22T10:38:33;20.05;;;9.52;;
55497;SDS011;41357;52.806;18.268;2024-03-22T10:41:02;26.95;;;11.45;;
55497;SDS011;41357;52.806;18.268;2024-03-22T10:43:29;25.02;;;10.77;;
55497;SDS011;41357;52.806;18.268;2024-03-22T10:45:55;26.25;;;10.82;;
55497;SDS011;41357;52.806;18.268;2024-03-22T10:48:22;28.35;;;12.75;;
55497;SDS011;41357;52.806;18.268;2024-03-22T10:50:51;25.95;;;11.40;;
55497;SDS011;41357;52.806;18.268;2024-03-22T10:53:21;27.13;;;10.77;;
55497;SDS011;41357;52.806;18.268;2024-03-22T10:55:52;30.00;;;12.88;;
55497;SDS011;41357;52.806;18.268;2024-03-22T10:58:22;31.85;;;12.85;;
55497;SDS011;41357;52.806;18.268;2024-03-22T11:00:53;30.90;;;13.88;;
55497;SDS011;41357;52.806;18.268;2024-03-22T11:03:23;35.15;;;15.38;;
55497;SDS011;41357;52.806;18.268;2024-03-22T11:05:50;27.83;;;13.50;;
55497;SDS011;41357;52.806;18.268;2024-03-22T11:08:25;24.65;;;10.95;;
55497;SDS011;41357;52.806;18.268;2024-03-22T11:10:52;29.15;;;12.32;;
55497;SDS011;41357;52.806;18.268;2024-03-22T11:13:18;29.25;;;13.38;;
55497;SDS011;41357;52.806;18.268;2024-03-22T11:15:48;26.10;;;11.48;;
55497;SDS011;41357;52.806;18.268;2024-03-22T11:18:14;19.52;;;9.98;;
55497;SDS011;41357;52.806;18.268;2024-03-22T11:20:41;22.15;;;10.45;;
55497;SDS011;41357;52.806;18.268;2024-03-22T11:23:08;25.10;;;11.40;;
55497;SDS011;41357;52.806;18.268;2024-03-22T11:25:34;22.38;;;10.80;;
55497;SDS011;41357;52.806;18.268;2024-03-22T11:28:01;20.55;;;10.65;;
55497;SDS011;41357;52.806;18.268;2024-03-22T11:30:30;21.85;;;10.25;;
55497;SDS011;41357;52.806;18.268;2024-03-22T11:32:57;27.20;;;11.38;;
55497;SDS011;41357;52.806;18.268;2024-03-22T11:35:24;23.38;;;11.02;;
55497;SDS011;41357;52.806;18.268;2024-03-22T11:37:50;23.25;;;10.88;;
55497;SDS011;41357;52.806;18.268;2024-03-22T11:40:16;22.98;;;10.38;;
55497;SDS011;41357;52.806;18.268;2024-03-22T11:42:44;25.80;;;10.40;;
55497;SDS011;41357;52.806;18.268;2024-03-22T11:45:11;22.45;;;11.15;;
55497;SDS011;41357;52.806;18.268;2024-03-22T11:47:38;23.90;;;10.82;;
55497;SDS011;41357;52.806;18.268;2024-03-22T11:50:06;20.48;;;9.43;;
55497;SDS011;41357;52.806;18.268;2024-03-22T11:52:32;23.75;;;10.25;;
55497;SDS011;41357;52.806;18.268;2024-03-22T11:54:58;22.33;;;10.30;;
55497;SDS011;41357;52.806;18.268;2024-03-22T11:57:24;28.60;;;12.15;;
55497;SDS011;41357;52.806;18.268;2024-03-22T11:59:52;30.05;;;12.75;;
55497;SDS011;41357;52.806;18.268;2024-03-22T12:02:24;28.63;;;10.60;;
55497;SDS011;41357;52.806;18.268;2024-03-22T12:04:50;24.00;;;11.25;;
55497;SDS011;41357;52.806;18.268;2024-03-22T12:07:17;21.17;;;10.40;;
55497;SDS011;41357;52.806;18.268;2024-03-22T12:09:43;24.52;;;11.05;;
55497;SDS011;41357;52.806;18.268;2024-03-22T12:12:10;18.83;;;9.70;;
55497;SDS011;41357;52.806;18.268;2024-03-22T12:14:37;22.30;;;10.38;;
55497;SDS011;41357;52.806;18.268;2024-03-22T12:17:03;19.33;;;9.73;;
55497;SDS011;41357;52.806;18.268;2024-03-22T12:19:30;21.52;;;8.23;;
55497;SDS011;41357;52.806;18.268;2024-03-22T12:21:56;24.67;;;10.07;;
55497;SDS011;41357;52.806;18.268;2024-03-22T12:24:22;31.67;;;11.68;;
55497;SDS011;41357;52.806;18.268;2024-03-22T12:26:49;28.40;;;12.27;;
55497;SDS011;41357;52.806;18.268;2024-03-22T12:29:15;29.05;;;12.45;;
55497;SDS011;41357;52.806;18.268;2024-03-22T12:31:41;21.90;;;10.20;;
55497;SDS011;41357;52.806;18.268;2024-03-22T12:34:08;23.92;;;9.32;;
55497;SDS011;41357;52.806;18.268;2024-03-22T12:36:34;25.77;;;11.82;;
55497;SDS011;41357;52.806;18.268;2024-03-22T12:39:00;24.20;;;10.00;;
55497;SDS011;41357;52.806;18.268;2024-03-22T12:41:27;29.08;;;11.55;;
55497;SDS011;41357;52.806;18.268;2024-03-22T12:43:57;24.50;;;10.85;;
55497;SDS011;41357;52.806;18.268;2024-03-22T12:46:23;22.50;;;10.50;;
55497;SDS011;41357;52.806;18.268;2024-03-22T12:48:49;22.17;;;10.38;;
55497;SDS011;41357;52.806;18.268;2024-03-22T12:51:15;25.92;;;10.82;;
55497;SDS011;41357;52.806;18.268;2024-03-22T12:53:42;24.52;;;10.32;;
55497;SDS011;41357;52.806;18.268;2024-03-22T12:56:08;23.63;;;10.57;;
55497;SDS011;41357;52.806;18.268;2024-03-22T12:58:34;23.73;;;10.05;;
55497;SDS011;41357;52.806;18.268;2024-03-22T13:01:00;28.92;;;12.45;;
55497;SDS011;41357;52.806;18.268;2024-03-22T13:03:27;25.70;;;11.60;;
55497;SDS011;41357;52.806;18.268;2024-03-22T13:05:53;30.27;;;13.25;;
55497;SDS011;41357;52.806;18.268;2024-03-22T13:08:20;29.70;;;12.95;;
55497;SDS011;41357;52.806;18.268;2024-03-22T13:10:46;22.95;;;10.80;;
55497;SDS011;41357;52.806;18.268;2024-03-22T13:13:13;29.60;;;14.10;;
55497;SDS011;41357;52.806;18.268;2024-03-22T13:15:41;39.47;;;18.02;;
55497;SDS011;41357;52.806;18.268;2024-03-22T13:18:08;24.90;;;11.50;;
55497;SDS011;41357;52.806;18.268;2024-03-22T13:20:37;24.67;;;12.13;;
55497;SDS011;41357;52.806;18.268;2024-03-22T13:23:03;26.63;;;12.60;;
55497;SDS011;41357;52.806;18.268;2024-03-22T13:25:30;30.85;;;10.75;;
55497;SDS011;41357;52.806;18.268;2024-03-22T13:27:56;25.13;;;11.00;;
55497;SDS011;41357;52.806;18.268;2024-03-22T13:30:22;27.45;;;12.05;;
55497;SDS011;41357;52.806;18.268;2024-03-22T13:32:49;21.70;;;11.05;;
55497;SDS011;41357;52.806;18.268;2024-03-22T13:35:15;25.70;;;11.35;;
55497;SDS011;41357;52.806;18.268;2024-03-22T13:37:41;23.60;;;11.50;;
55497;SDS011;41357;52.806;18.268;2024-03-22T13:40:07;26.42;;;12.32;;
55497;SDS011;41357;52.806;18.268;2024-03-22T13:42:34;25.13;;;12.40;;
55497;SDS011;41357;52.806;18.268;2024-03-22T13:45:00;21.38;;;11.48;;
55497;SDS011;41357;52.806;18.268;2024-03-22T13:47:26;20.02;;;10.85;;
55497;SDS011;41357;52.806;18.268;2024-03-22T13:49:55;24.60;;;11.65;;
55497;SDS011;41357;52.806;18.268;2024-03-22T13:52:21;27.80;;;11.73;;
55497;SDS011;41357;52.806;18.268;2024-03-22T13:54:47;18.50;;;10.15;;
55497;SDS011;41357;52.806;18.268;2024-03-22T13:57:15;23.77;;;10.60;;
55497;SDS011;41357;52.806;18.268;2024-03-22T13:59:41;26.58;;;12.07;;
55497;SDS011;41357;52.806;18.268;2024-03-22T14:02:07;20.73;;;10.25;;
55497;SDS011;41357;52.806;18.268;2024-03-22T14:04:37;22.30;;;10.02;;
55497;SDS011;41357;52.806;18.268;2024-03-22T14:07:03;22.45;;;11.50;;
55497;SDS011;41357;52.806;18.268;2024-03-22T14:09:32;29.23;;;10.50;;